Check out our new BloomSky Weather System.

Active alerts


No alerts


Thunder radar  blitzortung!


Rain radar more information rain snow radar


Visit our other weather sites:

Template documentation
and downloads

And another site



Weather Underground History page Text

Daily Summary for June 3, 2017 Units:  Metric    English   Both
« Previous Day
Next Day »
Daily Weekly Monthly Yearly Custom
  High: Low: Average:
Temperature: 33.4 °C 22.6 °C 26.8 °C
Dew Point: 25.9 °C 22.3 °C 23.8 °C
Humidity: 99 % 60 % 85 %
Wind Speed: 16.1 km/h 0 km/h 1.9 km/h
Wind Gust: 27.4 km/h - -
Wind:- - South
Pressure: 1013.4 hPa 1009 hPa -
Precipitation: 0 mm    
Historical Graphs
 
 
Tabular Data for June 3, 2017
Time Temperature Dew Point Pressure Wind Wind Speed Wind Gust Humidity Rainfall Rate (Hourly)
00:00 24.7 °C 23.5 °C 1012.4 hPa Calm     93 % 0 mm
00:05 24.6 °C 23.4 °C 1012.4 hPa Calm     93 % 0 mm
00:10 24.6 °C 23.4 °C 1012.4 hPa Calm   1.6 km/h 93 % 0 mm
00:15 24.6 °C 23.4 °C 1012.4 hPa Calm   1.6 km/h 93 % 0 mm
00:20 24.5 °C 23.3 °C 1012.4 hPa Calm   1.6 km/h 93 % 0 mm
00:25 24.4 °C 23.2 °C 1012.4 hPa Calm   1.6 km/h 93 % 0 mm
00:30 24.4 °C 23.4 °C 1012.1 hPa Calm   1.6 km/h 94 % 0 mm
00:35 24.3 °C 23.3 °C 1012.4 hPa Calm   1.6 km/h 94 % 0 mm
00:40 24.3 °C 23.3 °C 1012.4 hPa Calm   1.6 km/h 94 % 0 mm
00:45 24.3 °C 23.3 °C 1012.4 hPa Calm   1.6 km/h 94 % 0 mm
00:50 24.3 °C 23.3 °C 1012.4 hPa Calm   1.6 km/h 94 % 0 mm
00:55 24.2 °C 23.2 °C 1012.4 hPa Calm   1.6 km/h 94 % 0 mm
01:00 24.2 °C 23.3 °C 1012.4 hPa Calm   1.6 km/h 95 % 0 mm
01:05 24.2 °C 23.3 °C 1012.1 hPa Calm   1.6 km/h 95 % 0 mm
01:10 24.2 °C 23.3 °C 1012.1 hPa Calm   1.6 km/h 95 % 0 mm
01:15 24.2 °C 23.3 °C 1012.1 hPa Calm   1.6 km/h 95 % 0 mm
01:20 24.2 °C 23.3 °C 1012.1 hPa Calm   1.6 km/h 95 % 0 mm
01:25 24.1 °C 23.2 °C 1011.7 hPa Calm   1.6 km/h 95 % 0 mm
01:26 24.1 °C 23.2 °C 1011.7 hPa Calm   1.6 km/h 95 % 0 mm
01:31 24.1 °C 23.2 °C 1011.7 hPa Calm   3.2 km/h 95 % 0 mm
01:36 24.1 °C 23.2 °C 1011.7 hPa Calm   3.2 km/h 95 % 0 mm
01:41 24 °C 23.1 °C 1011.7 hPa Calm   3.2 km/h 95 % 0 mm
01:46 23.9 °C 23 °C 1011.7 hPa Calm   1.6 km/h 95 % 0 mm
01:51 23.9 °C 23.2 °C 1011.7 hPa Calm   1.6 km/h 96 % 0 mm
01:56 23.8 °C 23.1 °C 1011.4 hPa Calm   1.6 km/h 96 % 0 mm
02:01 23.8 °C 23.1 °C 1011.4 hPa Calm   1.6 km/h 96 % 0 mm
02:06 23.8 °C 23.1 °C 1011.4 hPa Calm   1.6 km/h 96 % 0 mm
02:11 23.8 °C 23.1 °C 1011.4 hPa Calm   1.6 km/h 96 % 0 mm
02:16 23.7 °C 23 °C 1011.4 hPa Calm   1.6 km/h 96 % 0 mm
02:21 23.7 °C 23 °C 1011.4 hPa Calm   1.6 km/h 96 % 0 mm
02:26 23.6 °C 22.9 °C 1011.1 hPa Calm   1.6 km/h 96 % 0 mm
02:31 23.6 °C 22.9 °C 1011.1 hPa Calm   1.6 km/h 96 % 0 mm
02:36 23.6 °C 22.9 °C 1011.1 hPa Calm   1.6 km/h 96 % 0 mm
02:41 23.5 °C 22.8 °C 1011.1 hPa Calm   1.6 km/h 96 % 0 mm
02:46 23.5 °C 22.8 °C 1011.1 hPa Calm   1.6 km/h 96 % 0 mm
02:51 23.4 °C 22.9 °C 1011.1 hPa Calm   1.6 km/h 97 % 0 mm
02:56 23.4 °C 22.9 °C 1010.7 hPa Calm     97 % 0 mm
03:01 23.4 °C 22.9 °C 1010.7 hPa Calm   1.6 km/h 97 % 0 mm
03:06 23.4 °C 22.9 °C 1010.7 hPa Calm   1.6 km/h 97 % 0 mm
03:11 23.3 °C 22.8 °C 1010.7 hPa Calm   1.6 km/h 97 % 0 mm
03:16 23.3 °C 22.8 °C 1010.7 hPa Calm     97 % 0 mm
03:21 23.3 °C 22.8 °C 1010.7 hPa Calm   1.6 km/h 97 % 0 mm
03:26 23.3 °C 22.8 °C 1010.7 hPa Calm   1.6 km/h 97 % 0 mm
03:31 23.3 °C 22.8 °C 1010.7 hPa Calm   1.6 km/h 97 % 0 mm
03:36 23.2 °C 22.7 °C 1010.7 hPa Calm   1.6 km/h 97 % 0 mm
03:41 23.2 °C 22.7 °C 1010.7 hPa Calm     97 % 0 mm
03:43 23.2 °C 22.7 °C 1010.7 hPa Calm     97 % 0 mm
03:48 23.2 °C 22.7 °C 1010.7 hPa Calm     97 % 0 mm
04:00 23.2 °C 22.7 °C 1010.7 hPa Calm   1.6 km/h 97 % 0 mm
04:05 23.1 °C 22.6 °C 1010.7 hPa Calm   1.6 km/h 97 % 0 mm
04:10 23.1 °C 22.6 °C 1011.1 hPa Calm     97 % 0 mm
04:15 23 °C 22.5 °C 1011.1 hPa Calm     97 % 0 mm
04:20 23.1 °C 22.8 °C 1011.1 hPa Calm     98 % 0 mm
04:21 23.1 °C 22.8 °C 1011.1 hPa Calm     98 % 0 mm
04:26 23.1 °C 22.6 °C 1011.1 hPa Calm     97 % 0 mm
04:31 22.9 °C 22.4 °C 1011.1 hPa Calm     97 % 0 mm
04:36 22.9 °C 22.4 °C 1011.1 hPa Calm     97 % 0 mm
04:41 22.9 °C 22.4 °C 1011.1 hPa Calm     97 % 0 mm
04:46 22.8 °C 22.3 °C 1011.1 hPa Calm     97 % 0 mm
04:51 22.8 °C 22.5 °C 1011.1 hPa Calm     98 % 0 mm
04:56 22.8 °C 22.5 °C 1011.1 hPa Calm     98 % 0 mm
05:01 22.8 °C 22.5 °C 1011.1 hPa Calm     98 % 0 mm
05:06 22.8 °C 22.5 °C 1011.1 hPa Calm     98 % 0 mm
05:11 22.8 °C 22.5 °C 1011.1 hPa Calm     98 % 0 mm
05:16 22.8 °C 22.5 °C 1011.1 hPa Calm     98 % 0 mm
05:17 22.8 °C 22.5 °C 1011.1 hPa Calm     98 % 0 mm
05:22 22.7 °C 22.4 °C 1011.4 hPa Calm     98 % 0 mm
05:27 22.8 °C 22.5 °C 1011.4 hPa Calm     98 % 0 mm
05:32 22.7 °C 22.4 °C 1011.4 hPa Calm     98 % 0 mm
05:37 22.7 °C 22.4 °C 1011.4 hPa Calm     98 % 0 mm
05:38 22.7 °C 22.4 °C 1011.4 hPa Calm     98 % 0 mm
05:43 22.7 °C 22.4 °C 1011.4 hPa Calm   1.6 km/h 98 % 0 mm
05:48 22.6 °C 22.3 °C 1011.4 hPa Calm   1.6 km/h 98 % 0 mm
05:53 22.6 °C 22.3 °C 1011.4 hPa Calm   1.6 km/h 98 % 0 mm
06:03 22.6 °C 22.3 °C 1011.7 hPa Calm     98 % 0 mm
06:08 22.6 °C 22.3 °C 1011.7 hPa Calm     98 % 0 mm
06:13 22.6 °C 22.3 °C 1011.7 hPa Calm   1.6 km/h 98 % 0 mm
06:18 22.7 °C 22.4 °C 1011.7 hPa North 1.6 km/h 1.6 km/h 98 % 0 mm
06:23 22.8 °C 22.5 °C 1011.7 hPa Calm   1.6 km/h 98 % 0 mm
06:29 22.9 °C 22.6 °C 1011.7 hPa Calm   1.6 km/h 98 % 0 mm
06:34 23 °C 22.7 °C 1012.1 hPa Calm   1.6 km/h 98 % 0 mm
06:44 23.2 °C 22.9 °C 1012.1 hPa Calm   3.2 km/h 98 % 0 mm
06:49 23.2 °C 22.9 °C 1012.1 hPa Calm   3.2 km/h 98 % 0 mm
06:54 23.3 °C 23 °C 1012.4 hPa Calm   3.2 km/h 98 % 0 mm
06:59 23.3 °C 23 °C 1012.4 hPa Calm   1.6 km/h 98 % 0 mm
07:04 23.4 °C 23.1 °C 1012.4 hPa Calm   1.6 km/h 98 % 0 mm
07:09 23.4 °C 23.1 °C 1012.4 hPa Calm   1.6 km/h 98 % 0 mm
07:14 23.6 °C 23.3 °C 1012.4 hPa Calm   3.2 km/h 98 % 0 mm
07:19 23.7 °C 23.4 °C 1012.4 hPa Calm   3.2 km/h 98 % 0 mm
07:24 23.7 °C 23.4 °C 1012.8 hPa Calm   3.2 km/h 98 % 0 mm
07:29 23.7 °C 23.4 °C 1012.8 hPa Calm   1.6 km/h 98 % 0 mm
07:34 23.8 °C 23.6 °C 1012.8 hPa Calm   3.2 km/h 99 % 0 mm
07:39 23.9 °C 23.6 °C 1013.1 hPa Calm   3.2 km/h 98 % 0 mm
07:44 23.9 °C 23.7 °C 1013.1 hPa Calm   3.2 km/h 99 % 0 mm
07:49 24 °C 23.7 °C 1013.1 hPa Calm   1.6 km/h 98 % 0 mm
07:54 24.1 °C 23.8 °C 1013.1 hPa Calm   1.6 km/h 98 % 0 mm
07:59 24.2 °C 24 °C 1013.1 hPa Calm   1.6 km/h 99 % 0 mm
08:04 24.4 °C 24.2 °C 1013.4 hPa Calm   1.6 km/h 99 % 0 mm
08:09 24.5 °C 24.2 °C 1013.4 hPa Calm   1.6 km/h 98 % 0 mm
08:14 24.6 °C 24.3 °C 1013.4 hPa Calm   1.6 km/h 98 % 0 mm
08:19 24.7 °C 24.4 °C 1013.4 hPa North 1.6 km/h 3.2 km/h 98 % 0 mm
08:24 24.6 °C 24.3 °C 1013.4 hPa Calm   3.2 km/h 98 % 0 mm
08:29 24.6 °C 24.3 °C 1013.4 hPa North 1.6 km/h 3.2 km/h 98 % 0 mm
08:34 24.8 °C 24.5 °C 1013.4 hPa NW 1.6 km/h 4.8 km/h 98 % 0 mm
08:39 25.2 °C 25 °C 1013.4 hPa Calm   4.8 km/h 99 % 0 mm
08:44 25.3 °C 25 °C 1013.4 hPa North 3.2 km/h 6.4 km/h 98 % 0 mm
08:49 25.6 °C 25.3 °C 1013.4 hPa ENE 3.2 km/h 8 km/h 98 % 0 mm
08:54 25.9 °C 25.4 °C 1013.4 hPa Calm   8 km/h 97 % 0 mm
08:59 25.9 °C 25.2 °C 1013.4 hPa Calm   8 km/h 96 % 0 mm
09:04 25.9 °C 25 °C 1013.4 hPa East 1.6 km/h 6.4 km/h 95 % 0 mm
09:09 26 °C 25 °C 1013.4 hPa ENE 3.2 km/h 9.7 km/h 94 % 0 mm
09:10 26 °C 25 °C 1013.4 hPa East 1.6 km/h 9.7 km/h 94 % 0 mm
09:15 26 °C 25 °C 1013.4 hPa NNW 6.4 km/h 9.7 km/h 94 % 0 mm
09:20 26.1 °C 24.9 °C 1013.4 hPa North 1.6 km/h 6.4 km/h 93 % 0 mm
09:25 26.3 °C 25.1 °C 1013.4 hPa Calm   6.4 km/h 93 % 0 mm
09:30 26.6 °C 25.4 °C 1013.4 hPa Calm   6.4 km/h 93 % 0 mm
09:35 26.8 °C 25.2 °C 1013.4 hPa ENE 3.2 km/h 6.4 km/h 91 % 0 mm
09:40 26.9 °C 25.1 °C 1013.4 hPa Calm   8 km/h 90 % 0 mm
09:45 27.2 °C 25.2 °C 1013.4 hPa Calm   8 km/h 89 % 0 mm
09:50 27.3 °C 25.1 °C 1013.4 hPa NW 1.6 km/h 8 km/h 88 % 0 mm
09:55 27.3 °C 25.1 °C 1013.1 hPa Calm   8 km/h 88 % 0 mm
10:01 27.3 °C 25.1 °C 1013.1 hPa North 1.6 km/h 8 km/h 88 % 0 mm
10:06 27.4 °C 25 °C 1013.1 hPa NW 1.6 km/h 9.7 km/h 87 % 0 mm
10:11 27.5 °C 25.1 °C 1013.1 hPa NE 6.4 km/h 9.7 km/h 87 % 0 mm
10:16 27.6 °C 25.4 °C 1012.8 hPa Calm   9.7 km/h 88 % 0 mm
10:21 28 °C 25.4 °C 1012.8 hPa ESE 4.8 km/h 8 km/h 86 % 0 mm
10:26 28.1 °C 25.3 °C 1012.8 hPa NNW 6.4 km/h 9.7 km/h 85 % 0 mm
10:31 28.3 °C 25.1 °C 1012.8 hPa ESE 1.6 km/h 9.7 km/h 83 % 0 mm
10:36 28.3 °C 24.9 °C 1012.8 hPa South 3.2 km/h 9.7 km/h 82 % 0 mm
10:41 28.3 °C 25.1 °C 1012.8 hPa Calm   11.3 km/h 83 % 0 mm
10:46 28.6 °C 25.2 °C 1012.8 hPa NNE 4.8 km/h 11.3 km/h 82 % 0 mm
10:51 28.8 °C 25.2 °C 1012.4 hPa East 4.8 km/h 11.3 km/h 81 % 0 mm
10:56 29.1 °C 25.5 °C 1012.8 hPa NNE 3.2 km/h 9.7 km/h 81 % 0 mm
11:00 29.2 °C 25.6 °C 1012.4 hPa Calm   9.7 km/h 81 % 0 mm
11:05 29.4 °C 25.4 °C 1012.4 hPa East 1.6 km/h 9.7 km/h 79 % 0 mm
11:10 29.3 °C 24.8 °C 1012.4 hPa Calm   8 km/h 77 % 0 mm
11:15 29.4 °C 25.2 °C 1012.4 hPa NNE 3.2 km/h 8 km/h 78 % 0 mm
11:20 29.7 °C 25.4 °C 1012.4 hPa East 3.2 km/h 8 km/h 78 % 0 mm
11:25 29.7 °C 24.8 °C 1012.4 hPa East 3.2 km/h 8 km/h 75 % 0 mm
11:30 29.6 °C 24.9 °C 1012.4 hPa ESE 3.2 km/h 8 km/h 76 % 0 mm
11:37 29.9 °C 25.2 °C 1012.4 hPa Calm   8 km/h 76 % 0 mm
11:42 30.3 °C 25.1 °C 1012.4 hPa NW 1.6 km/h 8 km/h 74 % 0 mm
11:47 30.6 °C 25.9 °C 1012.1 hPa NW 1.6 km/h 8 km/h 76 % 0 mm
11:52 30.9 °C 25.3 °C 1012.1 hPa Calm   8 km/h 72 % 0 mm
11:57 30.9 °C 24.8 °C 1012.1 hPa ENE 3.2 km/h 6.4 km/h 70 % 0 mm
12:02 30.8 °C 25.4 °C 1012.1 hPa WNW 1.6 km/h 16.1 km/h 73 % 0 mm
12:07 30.8 °C 24.4 °C 1012.1 hPa Calm   16.1 km/h 69 % 0 mm
12:12 30.8 °C 24.7 °C 1012.1 hPa East 1.6 km/h 16.1 km/h 70 % 0 mm
12:17 30.9 °C 25 °C 1012.1 hPa ENE 4.8 km/h 9.7 km/h 71 % 0 mm
12:22 31.1 °C 25 °C 1012.1 hPa Calm   9.7 km/h 70 % 0 mm
12:27 30.8 °C 24.4 °C 1012.1 hPa NNW 1.6 km/h 9.7 km/h 69 % 0 mm
12:32 30.7 °C 24.4 °C 1011.7 hPa Calm   8 km/h 69 % 0 mm
12:37 30.7 °C 25.1 °C 1011.7 hPa NW 1.6 km/h 8 km/h 72 % 0 mm
12:42 31.1 °C 25.2 °C 1011.7 hPa North 3.2 km/h 9.7 km/h 71 % 0 mm
12:47 31.2 °C 25.1 °C 1011.7 hPa NW 4.8 km/h 9.7 km/h 70 % 0 mm
12:52 31.3 °C 25.2 °C 1011.4 hPa East 1.6 km/h 9.7 km/h 70 % 0 mm
12:57 31.7 °C 25.1 °C 1011.4 hPa ESE 3.2 km/h 8 km/h 68 % 0 mm
13:02 31.7 °C 25.1 °C 1011.4 hPa West 4.8 km/h 8 km/h 68 % 0 mm
13:07 32.1 °C 25.4 °C 1011.4 hPa NNE 3.2 km/h 6.4 km/h 68 % 0 mm
13:12 32.3 °C 25.4 °C 1011.4 hPa WNW 1.6 km/h 9.7 km/h 67 % 0 mm
13:17 32.1 °C 24.9 °C 1011.4 hPa East 6.4 km/h 9.7 km/h 66 % 0 mm
13:22 31.9 °C 24.5 °C 1011.1 hPa ESE 3.2 km/h 9.7 km/h 65 % 0 mm
13:27 32.3 °C 25.4 °C 1011.1 hPa East 3.2 km/h 9.7 km/h 67 % 0 mm
13:32 32.8 °C 25.6 °C 1011.1 hPa NW 3.2 km/h 9.7 km/h 66 % 0 mm
13:37 32.8 °C 25.3 °C 1011.1 hPa NW 4.8 km/h 9.7 km/h 65 % 0 mm
13:42 32.3 °C 24.4 °C 1011.1 hPa NNE 1.6 km/h 9.7 km/h 63 % 0 mm
13:47 32.2 °C 25 °C 1011.1 hPa SE 3.2 km/h 9.7 km/h 66 % 0 mm
13:52 32.2 °C 24.5 °C 1011.1 hPa ESE 3.2 km/h 9.7 km/h 64 % 0 mm
13:57 32.4 °C 24.7 °C 1011.1 hPa Calm   9.7 km/h 64 % 0 mm
14:02 32.3 °C 24.4 °C 1011.1 hPa NW 6.4 km/h 8 km/h 63 % 0 mm
14:07 31.9 °C 24.2 °C 1010.7 hPa NNW 4.8 km/h 11.3 km/h 64 % 0 mm
14:12 31.9 °C 24.2 °C 1010.7 hPa NNW 4.8 km/h 11.3 km/h 64 % 0 mm
14:17 32.2 °C 24.8 °C 1010.4 hPa SSE 4.8 km/h 11.3 km/h 65 % 0 mm
14:22 32.2 °C 24.5 °C 1010.4 hPa NW 4.8 km/h 9.7 km/h 64 % 0 mm
14:27 31.8 °C 24.4 °C 1010.4 hPa NNW 1.6 km/h 11.3 km/h 65 % 0 mm
14:32 31.7 °C 24 °C 1010.4 hPa Calm   11.3 km/h 64 % 0 mm
14:37 31.8 °C 24.7 °C 1010.4 hPa Calm   11.3 km/h 66 % 0 mm
14:42 31.7 °C 24.3 °C 1010 hPa SE 4.8 km/h 11.3 km/h 65 % 0 mm
14:47 31.9 °C 24 °C 1010 hPa Calm   6.4 km/h 63 % 0 mm
14:52 32.4 °C 24.4 °C 1010 hPa WSW 3.2 km/h 6.4 km/h 63 % 0 mm
14:57 33.1 °C 25.4 °C 1010 hPa NNE 1.6 km/h 6.4 km/h 64 % 0 mm
15:02 33.4 °C 24.6 °C 1010 hPa NNW 3.2 km/h 4.8 km/h 60 % 0 mm
15:07 32.9 °C 24.4 °C 1010 hPa NNW 4.8 km/h 11.3 km/h 61 % 0 mm
15:12 32.5 °C 24.3 °C 1010 hPa NW 1.6 km/h 11.3 km/h 62 % 0 mm
15:17 32.2 °C 24 °C 1010 hPa NNW 3.2 km/h 11.3 km/h 62 % 0 mm
15:22 32.1 °C 24.2 °C 1009.7 hPa Calm   11.3 km/h 63 % 0 mm
15:27 32.1 °C 24.4 °C 1009.7 hPa NNW 3.2 km/h 8 km/h 64 % 0 mm
15:32 32.1 °C 24.4 °C 1009.7 hPa ENE 1.6 km/h 8 km/h 64 % 0 mm
15:37 31.9 °C 24.2 °C 1009.7 hPa Calm   4.8 km/h 64 % 0 mm
15:42 32.1 °C 24.4 °C 1009.7 hPa WNW 4.8 km/h 4.8 km/h 64 % 0 mm
15:48 31.9 °C 24 °C 1009.7 hPa North 1.6 km/h 8 km/h 63 % 0 mm
15:53 32.1 °C 24.2 °C 1009.7 hPa NW 3.2 km/h 8 km/h 63 % 0 mm
15:58 32.4 °C 24.4 °C 1009.4 hPa Calm   8 km/h 63 % 0 mm
16:03 33.1 °C 24.8 °C 1009.4 hPa SE 6.4 km/h 6.4 km/h 62 % 0 mm
16:08 33.1 °C 24.8 °C 1009.4 hPa ESE 12.9 km/h 12.9 km/h 62 % 0 mm
16:13 32.4 °C 25 °C 1009.4 hPa SE 1.6 km/h 17.7 km/h 65 % 0 mm
16:18 31.6 °C 24.7 °C 1009.4 hPa NE 1.6 km/h 17.7 km/h 67 % 0 mm
16:23 30.8 °C 24.7 °C 1009.4 hPa East 11.3 km/h 17.7 km/h 70 % 0 mm
16:28 29.3 °C 23.7 °C 1009.7 hPa SE 3.2 km/h 20.9 km/h 72 % 0 mm
16:33 28.4 °C 22.6 °C 1009.4 hPa ENE 9.7 km/h 20.9 km/h 71 % 0 mm
16:38 27.9 °C 22.8 °C 1009.4 hPa East 3.2 km/h 27.4 km/h 74 % 0 mm
16:43 27.6 °C 22.8 °C 1009.7 hPa NW 3.2 km/h 27.4 km/h 75 % 0 mm
16:48 27.2 °C 22.6 °C 1009.4 hPa NE 3.2 km/h 27.4 km/h 76 % 0 mm
16:53 27.3 °C 22.7 °C 1009.4 hPa East 3.2 km/h 25.7 km/h 76 % 0 mm
16:58 27.8 °C 23 °C 1009.4 hPa NE 4.8 km/h 16.1 km/h 75 % 0 mm
17:03 28.1 °C 23 °C 1009.4 hPa ENE 3.2 km/h 9.7 km/h 74 % 0 mm
17:08 28.1 °C 23.2 °C 1009.4 hPa Calm   8 km/h 75 % 0 mm
17:13 27.9 °C 23.3 °C 1009.4 hPa ENE 1.6 km/h 8 km/h 76 % 0 mm
17:15 27.9 °C 23.3 °C 1009.4 hPa Calm   6.4 km/h 76 % 0 mm
17:20 28.1 °C 23.9 °C 1009.4 hPa Calm   6.4 km/h 78 % 0 mm
17:25 28.6 °C 24.2 °C 1009.4 hPa ENE 3.2 km/h 6.4 km/h 77 % 0 mm
17:30 29.1 °C 24.2 °C 1009.4 hPa NE 6.4 km/h 11.3 km/h 75 % 0 mm
17:35 29.2 °C 24.3 °C 1009 hPa WNW 6.4 km/h 11.3 km/h 75 % 0 mm
17:40 29.6 °C 24.5 °C 1009 hPa NNW 3.2 km/h 11.3 km/h 74 % 0 mm
17:45 29.9 °C 24.8 °C 1009 hPa ENE 3.2 km/h 11.3 km/h 74 % 0 mm
17:50 30.2 °C 25 °C 1009 hPa East 1.6 km/h 8 km/h 74 % 0 mm
17:55 30.2 °C 24.8 °C 1009 hPa ENE 3.2 km/h 9.7 km/h 73 % 0 mm
18:00 30.2 °C 25 °C 1009 hPa East 3.2 km/h 9.7 km/h 74 % 0 mm
18:05 30.2 °C 25 °C 1009 hPa NNW 3.2 km/h 9.7 km/h 74 % 0 mm
18:10 30.3 °C 25.1 °C 1009 hPa North 3.2 km/h 9.7 km/h 74 % 0 mm
18:15 30.5 °C 25.1 °C 1009 hPa ENE 3.2 km/h 9.7 km/h 73 % 0 mm
18:16 30.4 °C 24.8 °C 1009 hPa NE 3.2 km/h 9.7 km/h 72 % 0 mm
18:21 30.3 °C 24.4 °C 1009 hPa East 3.2 km/h 9.7 km/h 71 % 0 mm
18:26 30.3 °C 24.4 °C 1009 hPa East 6.4 km/h 12.9 km/h 71 % 0 mm
18:31 30.4 °C 24.5 °C 1009 hPa ENE 6.4 km/h 12.9 km/h 71 % 0 mm
18:36 30.5 °C 24.9 °C 1009 hPa East 4.8 km/h 12.9 km/h 72 % 0 mm
18:41 30.5 °C 24.9 °C 1009 hPa ESE 4.8 km/h 8 km/h 72 % 0 mm
18:46 30.4 °C 25.2 °C 1009 hPa East 3.2 km/h 11.3 km/h 74 % 0 mm
18:51 30.2 °C 25 °C 1009.4 hPa East 12.9 km/h 14.5 km/h 74 % 0 mm
18:56 29.4 °C 24.5 °C 1009.4 hPa SSE 11.3 km/h 17.7 km/h 75 % 0 mm
19:01 28.8 °C 24.1 °C 1009.4 hPa SSE 8 km/h 19.3 km/h 76 % 0 mm
19:06 28.3 °C 24.3 °C 1009.4 hPa ESE 8 km/h 24.1 km/h 79 % 0 mm
19:11 28.2 °C 24.6 °C 1009.4 hPa SSE 16.1 km/h 24.1 km/h 81 % 0 mm
19:16 27.8 °C 24.2 °C 1009.4 hPa ESE 8 km/h 24.1 km/h 81 % 0 mm
19:21 27.5 °C 24.1 °C 1009.4 hPa East 8 km/h 19.3 km/h 82 % 0 mm
19:26 27 °C 24.1 °C 1009 hPa SE 3.2 km/h 19.3 km/h 84 % 0 mm
19:31 26.8 °C 23.9 °C 1009 hPa East 4.8 km/h 19.3 km/h 84 % 0 mm
19:32 26.8 °C 23.9 °C 1009 hPa ESE 3.2 km/h 19.3 km/h 84 % 0 mm
19:37 26.7 °C 23.8 °C 1009 hPa Calm   19.3 km/h 84 % 0 mm
19:42 26.7 °C 23.6 °C 1009.4 hPa Calm   11.3 km/h 83 % 0 mm
19:47 26.7 °C 23.6 °C 1009.4 hPa SE 4.8 km/h 6.4 km/h 83 % 0 mm
19:52 26.8 °C 23.7 °C 1009.4 hPa ESE 3.2 km/h 6.4 km/h 83 % 0 mm
19:57 26.8 °C 23.7 °C 1009.4 hPa Calm   6.4 km/h 83 % 0 mm
20:03 26.8 °C 23.9 °C 1009.4 hPa NE 1.6 km/h 6.4 km/h 84 % 0 mm
20:08 26.8 °C 23.9 °C 1009.7 hPa Calm   3.2 km/h 84 % 0 mm
20:13 26.7 °C 23.8 °C 1009.7 hPa Calm   3.2 km/h 84 % 0 mm
20:18 26.6 °C 23.7 °C 1009.7 hPa Calm   4.8 km/h 84 % 0 mm
20:23 26.5 °C 23.8 °C 1010 hPa Calm   4.8 km/h 85 % 0 mm
20:28 26.3 °C 23.6 °C 1009.7 hPa Calm   4.8 km/h 85 % 0 mm
20:33 26.2 °C 23.7 °C 1009.7 hPa Calm   4.8 km/h 86 % 0 mm
20:38 26.1 °C 23.6 °C 1009.7 hPa Calm   3.2 km/h 86 % 0 mm
20:43 26.1 °C 23.8 °C 1009.7 hPa Calm   1.6 km/h 87 % 0 mm
20:48 26 °C 23.7 °C 1009.7 hPa Calm   3.2 km/h 87 % 0 mm
20:49 26 °C 23.7 °C 1010 hPa Calm   3.2 km/h 87 % 0 mm
20:54 25.9 °C 23.8 °C 1010 hPa Calm   3.2 km/h 88 % 0 mm
20:59 26.1 °C 24 °C 1010.4 hPa NNW 1.6 km/h 3.2 km/h 88 % 0 mm
21:04 26.1 °C 24 °C 1010.4 hPa Calm   4.8 km/h 88 % 0 mm
21:09 26.1 °C 24 °C 1010 hPa Calm   4.8 km/h 88 % 0 mm
21:14 26.1 °C 24 °C 1010 hPa NNW 3.2 km/h 4.8 km/h 88 % 0 mm
21:19 26.1 °C 24 °C 1010.4 hPa Calm   4.8 km/h 88 % 0 mm
21:24 26.1 °C 23.8 °C 1010.4 hPa WNW 8 km/h 8 km/h 87 % 0 mm
21:29 26.1 °C 23.8 °C 1010.7 hPa North 14.5 km/h 14.5 km/h 87 % 0 mm
21:34 26.1 °C 23.4 °C 1010.7 hPa NNW 6.4 km/h 16.1 km/h 85 % 0 mm
21:39 26 °C 22.9 °C 1010.7 hPa NW 6.4 km/h 16.1 km/h 83 % 0 mm
21:44 25.9 °C 22.4 °C 1011.1 hPa WNW 6.4 km/h 20.9 km/h 81 % 0 mm
21:49 25.9 °C 22.4 °C 1011.1 hPa NW 6.4 km/h 20.9 km/h 81 % 0 mm
21:54 25.7 °C 22.4 °C 1011.1 hPa West 6.4 km/h 20.9 km/h 82 % 0 mm
21:59 25.5 °C 22.4 °C 1011.1 hPa NW 4.8 km/h 17.7 km/h 83 % 0 mm
22:04 25.4 °C 22.3 °C 1010.7 hPa Calm   17.7 km/h 83 % 0 mm
22:09 25.4 °C 22.3 °C 1011.1 hPa Calm   16.1 km/h 83 % 0 mm
22:14 25.4 °C 22.3 °C 1011.1 hPa Calm   9.7 km/h 83 % 0 mm
22:19 25.3 °C 22.4 °C 1011.1 hPa ENE 1.6 km/h 8 km/h 84 % 0 mm
22:24 25.3 °C 22.6 °C 1011.4 hPa NW 4.8 km/h 4.8 km/h 85 % 0 mm
22:29 25.2 °C 22.5 °C 1011.1 hPa NW 3.2 km/h 6.4 km/h 85 % 0 mm
22:34 25.1 °C 22.6 °C 1011.1 hPa WNW 1.6 km/h 6.4 km/h 86 % 0 mm
22:35 25.1 °C 22.6 °C 1011.1 hPa NW 1.6 km/h 6.4 km/h 86 % 0 mm
22:40 25 °C 22.5 °C 1011.1 hPa NW 3.2 km/h 6.4 km/h 86 % 0 mm
22:42 24.9 °C 22.4 °C 1011.1 hPa North 1.6 km/h 6.4 km/h 86 % 0 mm
22:47 24.9 °C 22.6 °C 1010.7 hPa East 1.6 km/h 8 km/h 87 % 0 mm
22:52 24.8 °C 22.5 °C 1011.1 hPa NNE 1.6 km/h 8 km/h 87 % 0 mm
22:57 24.8 °C 22.5 °C 1011.1 hPa ENE 4.8 km/h 8 km/h 87 % 0 mm
23:02 24.7 °C 22.6 °C 1011.1 hPa NNE 1.6 km/h 6.4 km/h 88 % 0 mm
23:07 24.6 °C 22.5 °C 1011.1 hPa Calm   6.4 km/h 88 % 0 mm
23:13 24.6 °C 22.7 °C 1011.1 hPa Calm   6.4 km/h 89 % 0 mm
23:18 24.4 °C 22.5 °C 1011.4 hPa East 1.6 km/h 6.4 km/h 89 % 0 mm
23:22 24.3 °C 22.6 °C 1011.4 hPa Calm   6.4 km/h 90 % 0 mm
23:27 24.3 °C 22.6 °C 1011.4 hPa Calm   6.4 km/h 90 % 0 mm
23:32 24.2 °C 22.5 °C 1011.4 hPa NW 3.2 km/h 9.7 km/h 90 % 0 mm
23:37 24.1 °C 22.5 °C 1011.4 hPa Calm   9.7 km/h 91 % 0 mm
23:42 24.1 °C 22.5 °C 1011.4 hPa East 3.2 km/h 9.7 km/h 91 % 0 mm
23:45 24.1 °C 22.5 °C 1011.4 hPa Calm   6.4 km/h 91 % 0 mm
23:50 24.1 °C 22.7 °C 1011.4 hPa Calm   6.4 km/h 92 % 0 mm
23:55 24.1 °C 22.7 °C 1011.4 hPa Calm   4.8 km/h 92 % 0 mm
Spring, Texas: Villages of Bridgestone
Compliments of Weather Underground - 2.75 mb

Script developed by  Jim McMurry - jmcmurry@mwt.net Adapted for the template by  Wim van der Kuil - Leuven-Template.eu

You find our weather info also at:

UK Metoffice

WeatherCloud

Weather Underground

Mid-South Weather Network

AWEKAS

Citizen Weather Observer Program (CWOP)

HAMweather, WeatherForYou, PWS Weather

Equipment we use:

Weather-station
Davis Vantage Vue

Weather-program
Meteohub

Weather-server
Debian 7.9 x86 (Guest)

Provider
DreamHost

Davis Vantage Vue

Meteohub

Debian 7.9 x86 (Guest)

DreamHost